Terminal Aerodrome Forecast
Issued by NWS

Home | Current Version | Previous Version | Text Only | Print | Product List | Glossary On
Versions: 1 2 3 4 5 6 7 8 9 10 11 12 13 14 15 16
000
FTUS46 KSGX 220803 AAA
TAFCRQ
TAF AMD
KCRQ 220803Z 2208/2306 VRB04KT P6SM SCT015 BKN070
     FM221100 VRB03KT 5SM BR VCFG BKN005
     FM221600 VRB04KT P6SM SCT010
     FM221900 28011KT P6SM BKN060
     FM230400 24005KT P6SM BKN015=

USA.gov is the U.S. government's official web portal to all federal, state and local government web resources and services.